Time;durP1;ratioP1;P1;durP2;ratioP2;P2;SDS_P1;SDS_P2;PMS_P1;PMS_P2;Temp;Humidity;BMP_temperature;BMP_pressure;BME280_temperature;BME280_humidity;BME280_pressure;Samples;Min_cycle;Max_cycle;Signal;HPM_P1;HPM_P2
2023/01/29 00:00:28;;;;;;;;;;;;;;;20.71;27.87;96456.91;10421986;28;2150;-53
2023/01/29 00:05:29;;;;;;;;;;;;;;;20.68;27.65;96461.91;10424240;28;2270;-49
2023/01/29 00:10:29;;;;;;;;;;;;;;;20.63;27.46;96465.31;10418343;28;2104;-47
2023/01/29 00:15:29;;;;;;;;;;;;;;;20.61;27.46;96462.16;10424558;28;2213;-48
2023/01/29 00:20:30;;;;;;;;;;;;;;;20.58;27.61;96472.41;10424182;28;2115;-50
2023/01/29 00:25:30;;;;;;;;;;;;;;;20.54;27.79;96471.34;10424641;28;2177;-50
2023/01/29 00:30:30;;;;;;;;;;;;;;;20.51;27.68;96479.72;10423318;28;2164;-47
2023/01/29 00:35:31;;;;;;;;;;;;;;;20.48;28.03;96480.25;10425887;28;2198;-50
2023/01/29 00:44:56;;;;;;;;;;;;;;;20.43;28.13;96475.75;10422236;28;2180;-52
2023/01/29 00:45:51;;;;;;;;;;;;;;;20.40;27.95;96473.66;10413400;28;2076;-48
2023/01/29 00:50:51;;;;;;;;;;;;;;;20.38;27.96;96480.97;10428309;28;2250;-52
2023/01/29 00:55:52;;;;;;;;;;;;;;;20.33;28.05;96480.97;10402336;28;2210;-47
2023/01/29 01:00:52;;;;;;;;;;;;;;;20.31;27.82;96483.06;10429418;28;2329;-51
2023/01/29 01:06:02;;;;;;;;;;;;;;;20.28;28.05;96479.09;10420757;28;2109;-48
2023/01/29 01:11:03;;;;;;;;;;;;;;;20.23;28.08;96476.44;10422573;28;2116;-50
2023/01/29 01:16:13;;;;;;;;;;;;;;;20.20;28.14;96478.75;10422979;28;2166;-49
2023/01/29 01:21:14;;;;;;;;;;;;;;;20.18;27.92;96486.09;10425318;28;2174;-51
2023/01/29 01:26:14;;;;;;;;;;;;;;;20.15;28.08;96483.97;10424721;28;2119;-53
2023/01/29 01:31:14;;;;;;;;;;;;;;;20.10;28.17;96484.72;10419207;28;2546;-52
2023/01/29 01:36:15;;;;;;;;;;;;;;;20.06;28.20;96491.53;10417959;28;2559;-47
2023/01/29 01:41:17;;;;;;;;;;;;;;;20.03;28.36;96492.03;10420611;28;2190;-47
2023/01/29 01:46:17;;;;;;;;;;;;;;;20.02;28.07;96492.28;10438394;28;2141;-50
2023/01/29 01:51:18;;;;;;;;;;;;;;;19.98;28.29;96488.59;10417218;28;2277;-48
2023/01/29 01:56:20;;;;;;;;;;;;;;;19.95;28.18;96487.25;10422149;28;2135;-49
2023/01/29 02:01:29;;;;;;;;;;;;;;;19.92;28.31;96486.97;10433333;28;2150;-46
2023/01/29 02:11:49;;;;;;;;;;;;;;;19.85;28.36;96486.34;10402152;28;2207;-47
2023/01/29 02:16:49;;;;;;;;;;;;;;;19.83;28.25;96491.09;10414937;28;2299;-46
2023/01/29 02:21:53;;;;;;;;;;;;;;;19.80;28.36;96502.91;10421448;28;2199;-48
2023/01/29 02:27:12;;;;;;;;;;;;;;;19.77;28.24;96492.09;10415352;28;2215;-53
2023/01/29 02:32:16;;;;;;;;;;;;;;;19.73;28.15;96491.00;10423091;28;2137;-49
2023/01/29 02:37:16;;;;;;;;;;;;;;;19.69;28.23;96485.44;10421737;28;2316;-49
2023/01/29 02:42:29;;;;;;;;;;;;;;;19.68;28.36;96483.06;10419750;28;2162;-48
2023/01/29 02:47:32;;;;;;;;;;;;;;;19.65;28.33;96467.78;10431764;28;2385;-47
2023/01/29 02:52:36;;;;;;;;;;;;;;;19.62;28.22;96466.44;10421637;28;2161;-48
2023/01/29 02:57:38;;;;;;;;;;;;;;;19.59;28.28;96460.91;10434954;28;2087;-49
2023/01/29 03:02:42;;;;;;;;;;;;;;;19.57;28.32;96465.63;10400002;28;2208;-47
2023/01/29 03:07:49;;;;;;;;;;;;;;;19.55;28.12;96457.19;10426592;28;2205;-52
2023/01/29 03:12:50;;;;;;;;;;;;;;;19.52;28.26;96462.91;10424892;28;2279;-48
2023/01/29 03:17:58;;;;;;;;;;;;;;;19.49;28.19;96470.28;10441700;28;2174;-47
2023/01/29 03:23:06;;;;;;;;;;;;;;;19.47;28.17;96463.69;10417459;28;2315;-50
2023/01/29 03:33:27;;;;;;;;;;;;;;;19.42;28.33;96482.03;10433190;28;2156;-48
2023/01/29 03:38:28;;;;;;;;;;;;;;;19.39;28.27;96480.69;10438489;28;2142;-51
2023/01/29 03:43:31;;;;;;;;;;;;;;;19.38;28.30;96479.13;10426529;28;2238;-52
2023/01/29 03:48:36;;;;;;;;;;;;;;;19.36;28.10;96470.69;10411018;28;2265;-50
2023/01/29 03:53:36;;;;;;;;;;;;;;;19.34;28.16;96457.00;10422705;28;2185;-51
2023/01/29 03:58:36;;;;;;;;;;;;;;;19.32;28.11;96447.72;10427689;28;2155;-50
2023/01/29 04:03:37;;;;;;;;;;;;;;;19.29;28.12;96437.69;10429704;28;2178;-48
2023/01/29 04:08:48;;;;;;;;;;;;;;;19.28;28.08;96442.19;10409855;28;2163;-54
2023/01/29 04:13:48;;;;;;;;;;;;;;;19.26;28.14;96441.66;10431176;28;2318;-49
2023/01/29 04:18:49;;;;;;;;;;;;;;;19.23;28.05;96436.88;10417457;28;2182;-48
2023/01/29 04:23:49;;;;;;;;;;;;;;;19.22;28.15;96447.63;10418558;28;2212;-48
2023/01/29 04:29:08;;;;;;;;;;;;;;;19.21;28.09;96443.41;10428181;28;2202;-51
2023/01/29 04:34:22;;;;;;;;;;;;;;;19.18;28.00;96449.19;10416673;28;2203;-46
2023/01/29 04:39:34;;;;;;;;;;;;;;;19.15;28.16;96447.03;10411885;28;2193;-48
2023/01/29 04:44:39;;;;;;;;;;;;;;;19.12;28.06;96453.59;10424943;28;2212;-50
2023/01/29 04:49:44;;;;;;;;;;;;;;;19.12;28.18;96453.59;10404519;28;2223;-49
2023/01/29 04:55:04;;;;;;;;;;;;;;;19.11;28.34;96445.94;10425541;28;2170;-50
2023/01/29 05:00:09;;;;;;;;;;;;;;;19.09;28.28;96433.06;10418852;28;2135;-52
2023/01/29 05:05:09;;;;;;;;;;;;;;;19.08;28.35;96441.97;10417735;28;2154;-53
2023/01/29 05:10:09;;;;;;;;;;;;;;;19.09;28.42;96445.38;10420252;28;2262;-48
2023/01/29 05:15:11;;;;;;;;;;;;;;;19.10;28.30;96454.88;10423375;28;2160;-46
2023/01/29 05:20:11;;;;;;;;;;;;;;;19.17;28.12;96458.88;10408556;28;2262;-52
2023/01/29 05:25:18;;;;;;;;;;;;;;;19.23;28.05;96459.72;10420526;28;2249;-50
2023/01/29 05:30:19;;;;;;;;;;;;;;;19.30;28.14;96479.53;10415007;28;2170;-50
2023/01/29 05:35:19;;;;;;;;;;;;;;;19.38;27.92;96487.00;10423444;28;2211;-50
2023/01/29 05:40:19;;;;;;;;;;;;;;;19.43;27.80;96484.41;10419309;28;2171;-49
2023/01/29 05:45:19;;;;;;;;;;;;;;;19.48;27.69;96488.94;10420514;28;2231;-52
2023/01/29 05:50:20;;;;;;;;;;;;;;;19.53;27.71;96491.63;10418682;28;2291;-52
2023/01/29 05:55:20;;;;;;;;;;;;;;;19.58;27.51;96488.25;10425470;28;2097;-50
2023/01/29 06:00:20;;;;;;;;;;;;;;;19.64;27.42;96487.25;10416896;28;2260;-49
2023/01/29 06:05:21;;;;;;;;;;;;;;;19.66;27.33;96490.44;10424546;28;2246;-48
2023/01/29 06:10:21;;;;;;;;;;;;;;;19.69;27.41;96480.19;10428214;28;2139;-48
2023/01/29 06:15:21;;;;;;;;;;;;;;;19.74;27.29;96476.81;10422211;28;2189;-50
2023/01/29 06:20:22;;;;;;;;;;;;;;;19.76;27.43;96474.72;10435342;28;2175;-46
2023/01/29 06:25:22;;;;;;;;;;;;;;;19.81;27.34;96482.66;10474266;28;2264;-48
2023/01/29 06:30:22;;;;;;;;;;;;;;;19.83;27.11;96476.09;10479763;28;2171;-50
2023/01/29 06:35:23;;;;;;;;;;;;;;;19.85;27.14;96486.34;10475676;28;2200;-50
2023/01/29 06:40:23;;;;;;;;;;;;;;;19.88;27.02;96493.75;10471759;28;2241;-49
2023/01/29 06:45:23;;;;;;;;;;;;;;;19.90;27.19;96487.22;10459566;28;2171;-50
2023/01/29 06:50:23;;;;;;;;;;;;;;;19.91;27.11;96494.03;10472823;28;2181;-51
2023/01/29 06:55:24;;;;;;;;;;;;;;;19.95;27.08;96491.69;10469352;28;2156;-50
2023/01/29 07:00:24;;;;;;;;;;;;;;;19.95;26.92;96495.13;10461158;28;2194;-47
2023/01/29 07:05:24;;;;;;;;;;;;;;;19.96;27.07;96498.56;10470456;28;2186;-50
2023/01/29 07:10:24;;;;;;;;;;;;;;;19.99;27.21;96487.56;10464405;28;2195;-50
2023/01/29 07:15:25;;;;;;;;;;;;;;;20.01;26.88;96490.72;10469497;28;2170;-51
2023/01/29 07:20:26;;;;;;;;;;;;;;;20.01;27.16;96480.97;10464536;28;2162;-47
2023/01/29 07:25:26;;;;;;;;;;;;;;;20.03;27.17;96473.59;10426703;28;2236;-47
2023/01/29 07:30:26;;;;;;;;;;;;;;;20.05;26.88;96478.66;10419933;28;2201;-47
2023/01/29 07:35:26;;;;;;;;;;;;;;;20.07;26.99;96458.13;10425932;28;2039;-52
2023/01/29 07:40:27;;;;;;;;;;;;;;;20.08;26.91;96463.13;10422238;28;2157;-47
2023/01/29 07:45:30;;;;;;;;;;;;;;;20.09;26.79;96454.19;10426097;28;2200;-50
2023/01/29 07:50:30;;;;;;;;;;;;;;;20.10;26.70;96449.72;10419656;28;2170;-51
2023/01/29 07:55:31;;;;;;;;;;;;;;;20.10;26.90;96453.16;10404556;28;2195;-51
2023/01/29 08:00:31;;;;;;;;;;;;;;;20.12;26.74;96443.16;10420790;28;2089;-53
2023/01/29 08:05:32;;;;;;;;;;;;;;;20.15;26.77;96447.13;10423321;28;2183;-50
2023/01/29 08:10:32;;;;;;;;;;;;;;;20.14;26.92;96450.78;10426309;28;2110;-49
2023/01/29 08:15:33;;;;;;;;;;;;;;;20.14;26.63;96446.31;10418286;28;2152;-51
2023/01/29 08:20:33;;;;;;;;;;;;;;;20.15;26.60;96452.41;10413499;28;2130;-49
2023/01/29 08:25:33;;;;;;;;;;;;;;;20.12;26.78;96452.88;10430870;28;2229;-49
2023/01/29 08:30:34;;;;;;;;;;;;;;;20.10;26.89;96471.56;10424506;28;2254;-47
2023/01/29 08:35:34;;;;;;;;;;;;;;;20.10;26.83;96462.88;10426428;28;2197;-47
2023/01/29 08:40:34;;;;;;;;;;;;;;;20.05;26.99;96478.66;10434578;28;2127;-50
2023/01/29 08:45:35;;;;;;;;;;;;;;;20.03;26.86;96486.00;10422530;28;2137;-50
2023/01/29 08:50:36;;;;;;;;;;;;;;;20.00;26.86;96492.56;10421143;28;2179;-50
2023/01/29 08:55:36;;;;;;;;;;;;;;;19.98;27.12;96499.91;10409709;28;2192;-48
2023/01/29 09:00:37;;;;;;;;;;;;;;;19.92;27.30;96500.91;10411420;28;2439;-48
2023/01/29 09:05:37;;;;;;;;;;;;;;;19.89;27.33;96504.03;10422811;28;2370;-51
2023/01/29 09:10:38;;;;;;;;;;;;;;;19.86;27.48;96498.50;10419115;28;2244;-51
2023/01/29 09:15:38;;;;;;;;;;;;;;;19.82;27.42;96510.56;10422983;28;2259;-51
2023/01/29 09:20:38;;;;;;;;;;;;;;;19.78;27.27;96520.00;10430754;28;2237;-53
2023/01/29 09:25:38;;;;;;;;;;;;;;;19.74;27.47;96527.56;10422396;28;2150;-47
2023/01/29 09:30:39;;;;;;;;;;;;;;;19.77;27.61;96531.53;10399875;28;2103;-49
2023/01/29 09:35:39;;;;;;;;;;;;;;;19.77;27.84;96528.91;10420779;28;2174;-46
2023/01/29 09:41:18;;;;;;;;;;;;;;;19.77;28.07;96531.53;10418513;28;2186;-49
2023/01/29 09:46:19;;;;;;;;;;;;;;;19.75;28.23;96546.78;10331109;28;2201;-50
2023/01/29 09:51:39;;;;;;;;;;;;;;;19.73;28.30;96548.88;10403653;28;2136;-50
2023/01/29 09:56:40;;;;;;;;;;;;;;;19.72;28.26;96547.28;10412300;28;2170;-51
2023/01/29 10:01:59;;;;;;;;;;;;;;;19.71;27.98;96538.59;10416882;28;2418;-45
2023/01/29 10:07:16;;;;;;;;;;;;;;;19.69;28.30;96534.63;10424580;28;2147;-48
2023/01/29 10:12:35;;;;;;;;;;;;;;;19.64;28.38;96545.88;10408689;28;2210;-52
2023/01/29 10:17:35;;;;;;;;;;;;;;;19.63;29.02;96531.16;10412497;28;2316;-49
2023/01/29 10:22:44;;;;;;;;;;;;;;;19.59;29.29;96522.19;10411127;28;2135;-51
2023/01/29 10:27:49;;;;;;;;;;;;;;;19.59;29.39;96535.34;10400577;28;2353;-49
2023/01/29 10:32:49;;;;;;;;;;;;;;;19.57;29.50;96523.47;10398924;28;2122;-56
2023/01/29 10:37:52;;;;;;;;;;;;;;;19.55;29.67;96521.09;10411753;28;2494;-50
2023/01/29 10:43:02;;;;;;;;;;;;;;;19.52;29.77;96526.03;10421949;28;2132;-49
2023/01/29 10:48:14;;;;;;;;;;;;;;;19.49;29.49;96520.22;10426376;28;2182;-52
2023/01/29 10:53:29;;;;;;;;;;;;;;;19.44;29.31;96519.38;10410713;28;2174;-51
2023/01/29 10:58:35;;;;;;;;;;;;;;;19.41;29.24;96520.66;10425881;28;2167;-51
2023/01/29 11:03:35;;;;;;;;;;;;;;;19.38;29.46;96515.94;10415730;28;2274;-50
2023/01/29 11:08:41;;;;;;;;;;;;;;;19.37;29.83;96511.69;10421992;28;2161;-53
2023/01/29 11:13:42;;;;;;;;;;;;;;;19.38;29.93;96508.03;10423548;28;2301;-49
2023/01/29 11:18:49;;;;;;;;;;;;;;;19.41;29.90;96502.28;10425220;28;2193;-50
2023/01/29 11:23:49;;;;;;;;;;;;;;;19.47;29.78;96497.88;10427635;28;2175;-51
2023/01/29 11:28:49;;;;;;;;;;;;;;;19.55;29.34;96492.16;10424304;28;2118;-48
2023/01/29 11:33:59;;;;;;;;;;;;;;;19.63;29.35;96489.09;10426749;28;2162;-47
2023/01/29 11:39:19;;;;;;;;;;;;;;;19.73;29.17;96489.16;10424277;28;1946;-52
2023/01/29 11:44:20;;;;;;;;;;;;;;;19.81;29.14;96482.66;10423030;28;1987;-51
2023/01/29 11:49:21;;;;;;;;;;;;;;;19.85;28.77;96470.56;10420286;28;2087;-51
2023/01/29 11:54:22;;;;;;;;;;;;;;;19.90;28.68;96434.59;10415662;28;1946;-53
2023/01/29 11:59:22;;;;;;;;;;;;;;;19.94;28.51;96408.56;10422977;28;1919;-49
2023/01/29 12:04:22;;;;;;;;;;;;;;;19.97;28.40;96394.91;10425218;28;1977;-51
2023/01/29 12:09:26;;;;;;;;;;;;;;;20.00;28.41;96400.44;10394335;28;1978;-52
2023/01/29 12:14:27;;;;;;;;;;;;;;;20.05;28.12;96391.78;10398463;28;2034;-51
2023/01/29 12:19:36;;;;;;;;;;;;;;;20.07;28.17;96397.59;10417367;28;1928;-48
2023/01/29 12:24:54;;;;;;;;;;;;;;;20.10;27.88;96400.50;10439843;28;2211;-51
2023/01/29 12:30:09;;;;;;;;;;;;;;;20.15;27.92;96415.53;10467258;28;2049;-49
2023/01/29 12:35:23;;;;;;;;;;;;;;;20.17;27.90;96426.59;10455969;28;1922;-51
2023/01/29 12:40:24;;;;;;;;;;;;;;;20.16;27.78;96407.38;10464478;28;2041;-49
2023/01/29 12:45:24;;;;;;;;;;;;;;;20.20;27.74;96392.69;10454102;28;2062;-50
2023/01/29 12:50:26;;;;;;;;;;;;;;;20.20;27.68;96392.69;10460489;28;2026;-49
2023/01/29 12:55:35;;;;;;;;;;;;;;;20.22;27.77;96379.25;10462457;28;1925;-52
2023/01/29 13:00:37;;;;;;;;;;;;;;;20.24;27.56;96377.16;10465666;28;2072;-52
2023/01/29 13:05:38;;;;;;;;;;;;;;;20.23;27.38;96357.97;10460648;28;2082;-51
2023/01/29 13:10:40;;;;;;;;;;;;;;;20.23;27.62;96349.28;10465801;28;1931;-51
2023/01/29 13:15:41;;;;;;;;;;;;;;;20.22;27.42;96337.94;10460398;28;1949;-51
2023/01/29 13:20:41;;;;;;;;;;;;;;;20.24;27.38;96329.78;10460411;28;2129;-50
2023/01/29 13:25:42;;;;;;;;;;;;;;;20.26;27.53;96325.06;10398759;28;2243;-51
2023/01/29 13:30:42;;;;;;;;;;;;;;;20.24;27.53;96320.06;10410897;28;2007;-53
2023/01/29 13:35:42;;;;;;;;;;;;;;;20.26;27.40;96327.69;10416158;28;1989;-50
2023/01/29 13:40:47;;;;;;;;;;;;;;;20.26;27.28;96317.16;10411875;28;2097;-52
2023/01/29 13:45:47;;;;;;;;;;;;;;;20.27;27.29;96313.50;10396160;28;2005;-50
2023/01/29 13:50:47;;;;;;;;;;;;;;;20.28;27.32;96309.78;10386686;28;2014;-52
2023/01/29 13:55:47;;;;;;;;;;;;;;;20.29;27.33;96306.13;10410002;28;1896;-52
2023/01/29 14:00:48;;;;;;;;;;;;;;;20.29;27.26;96298.22;10403832;28;1946;-51
2023/01/29 14:05:57;;;;;;;;;;;;;;;20.31;27.30;96303.22;10421318;28;1973;-51
2023/01/29 14:11:18;;;;;;;;;;;;;;;20.32;27.14;96297.69;10422946;28;2103;-50
2023/01/29 14:16:18;;;;;;;;;;;;;;;20.32;27.31;96289.78;10427056;28;2028;-51
2023/01/29 14:21:19;;;;;;;;;;;;;;;20.33;27.20;96290.59;10416193;28;2128;-50
2023/01/29 14:26:27;;;;;;;;;;;;;;;20.35;27.14;96291.13;10429063;28;2108;-49
2023/01/29 14:31:28;;;;;;;;;;;;;;;20.35;27.13;96297.19;10427214;28;1959;-50
2023/01/29 14:36:29;;;;;;;;;;;;;;;20.39;27.12;96313.25;10409793;28;1983;-52
2023/01/29 14:41:29;;;;;;;;;;;;;;;20.40;27.57;96322.75;10421579;28;1906;-51
2023/01/29 14:46:33;;;;;;;;;;;;;;;20.39;27.36;96329.84;10403062;28;2037;-50
2023/01/29 14:51:33;;;;;;;;;;;;;;;20.38;27.36;96324.84;10410651;28;2049;-53
2023/01/29 14:56:35;;;;;;;;;;;;;;;20.37;27.24;96324.06;10403928;28;1996;-53
2023/01/29 15:01:38;;;;;;;;;;;;;;;20.42;27.32;96310.13;10425292;28;2028;-55
2023/01/29 15:06:54;;;;;;;;;;;;;;;20.36;27.64;96305.88;10422615;28;1987;-49
2023/01/29 15:11:56;;;;;;;;;;;;;;;20.37;27.29;96300.34;10429739;28;1966;-49
2023/01/29 15:17:16;;;;;;;;;;;;;;;20.35;27.28;96288.50;10426338;28;2046;-48
2023/01/29 15:22:18;;;;;;;;;;;;;;;20.34;27.63;96300.84;10433681;28;2154;-49
2023/01/29 15:27:18;;;;;;;;;;;;;;;20.35;27.64;96320.88;10423274;28;1977;-50
2023/01/29 15:32:26;;;;;;;;;;;;;;;20.34;27.59;96311.38;10403800;28;1967;-52
2023/01/29 15:37:28;;;;;;;;;;;;;;;20.32;27.84;96313.50;10389775;28;1986;-50
2023/01/29 15:42:28;;;;;;;;;;;;;;;20.35;27.88;96312.19;10412950;28;1983;-52
2023/01/29 15:47:29;;;;;;;;;;;;;;;20.31;28.02;96319.03;10428786;28;1965;-53
2023/01/29 15:52:31;;;;;;;;;;;;;;;20.31;28.02;96314.56;10417047;28;1987;-49
2023/01/29 15:57:39;;;;;;;;;;;;;;;20.30;28.04;96315.59;10431439;28;2024;-52
2023/01/29 16:02:40;;;;;;;;;;;;;;;20.32;28.37;96324.03;10404559;28;2069;-49
2023/01/29 16:07:41;;;;;;;;;;;;;;;20.27;28.13;96316.13;10415470;28;2024;-53
2023/01/29 16:12:41;;;;;;;;;;;;;;;20.22;28.05;96321.34;10399703;28;2145;-50
2023/01/29 16:17:41;;;;;;;;;;;;;;;20.21;28.12;96327.69;10418586;28;2045;-52
2023/01/29 16:22:42;;;;;;;;;;;;;;;20.20;28.17;96324.25;10419184;28;2138;-52
2023/01/29 16:27:42;;;;;;;;;;;;;;;20.21;28.19;96335.56;10418379;28;1957;-52
2023/01/29 16:32:42;;;;;;;;;;;;;;;20.26;27.92;96338.22;10413872;28;1942;-52
2023/01/29 16:37:46;;;;;;;;;;;;;;;20.25;28.13;96340.09;10400676;28;1979;-53
2023/01/29 16:42:46;;;;;;;;;;;;;;;20.24;28.34;96349.00;10418570;28;2085;-53
2023/01/29 16:47:47;;;;;;;;;;;;;;;20.21;28.38;96346.09;10426054;28;1981;-51
2023/01/29 16:52:59;;;;;;;;;;;;;;;20.21;28.25;96356.63;10403212;28;2071;-52
2023/01/29 16:58:01;;;;;;;;;;;;;;;20.18;28.22;96360.53;10416618;28;1919;-51
2023/01/29 17:03:05;;;;;;;;;;;;;;;20.19;28.44;96361.34;10425235;28;1980;-53
2023/01/29 17:08:05;;;;;;;;;;;;;;;20.17;28.36;96371.34;10400610;28;2070;-55
2023/01/29 17:13:06;;;;;;;;;;;;;;;20.13;28.81;96376.28;10420277;28;1953;-51
2023/01/29 17:18:10;;;;;;;;;;;;;;;20.13;28.57;96370.25;10415428;28;1979;-54
2023/01/29 17:23:10;;;;;;;;;;;;;;;20.13;28.57;96380.78;10416600;28;2119;-52
2023/01/29 17:28:11;;;;;;;;;;;;;;;20.12;28.64;96376.56;10409297;28;1978;-52
2023/01/29 17:33:13;;;;;;;;;;;;;;;20.10;28.63;96366.28;10419484;28;1990;-52
2023/01/29 17:38:14;;;;;;;;;;;;;;;20.11;28.79;96359.19;10411096;28;1983;-54
2023/01/29 17:43:14;;;;;;;;;;;;;;;20.09;28.53;96359.44;10414276;28;1946;-51
2023/01/29 17:48:25;;;;;;;;;;;;;;;20.10;28.96;96365.50;10421970;28;2091;-54
2023/01/29 17:53:25;;;;;;;;;;;;;;;20.12;28.70;96366.03;10417513;28;2157;-53
2023/01/29 17:58:25;;;;;;;;;;;;;;;20.10;28.88;96365.50;10416785;28;1962;-54
2023/01/29 18:03:26;;;;;;;;;;;;;;;20.13;28.68;96375.53;10409618;28;2171;-52
2023/01/29 18:08:32;;;;;;;;;;;;;;;20.09;28.87;96361.28;10417453;28;1946;-50
2023/01/29 18:13:34;;;;;;;;;;;;;;;20.10;28.40;96355.75;10416976;28;2177;-53
2023/01/29 18:18:35;;;;;;;;;;;;;;;20.12;28.60;96358.13;10422414;28;1969;-52
2023/01/29 18:23:35;;;;;;;;;;;;;;;20.10;28.50;96358.41;10422992;28;2099;-49
2023/01/29 18:28:35;;;;;;;;;;;;;;;20.11;28.67;96357.31;10431372;28;1979;-53
2023/01/29 18:33:35;;;;;;;;;;;;;;;20.12;28.47;96347.59;10415299;28;1859;-52
2023/01/29 18:38:36;;;;;;;;;;;;;;;20.14;28.30;96345.50;10424845;28;1856;-50
2023/01/29 18:43:36;;;;;;;;;;;;;;;20.15;28.48;96352.38;10417825;28;1892;-50
2023/01/29 18:48:37;;;;;;;;;;;;;;;20.15;28.45;96347.09;10414660;28;2266;-51
2023/01/29 18:53:37;;;;;;;;;;;;;;;20.15;28.21;96362.91;10417160;28;1986;-48
2023/01/29 18:58:38;;;;;;;;;;;;;;;20.15;28.62;96347.09;10417292;28;2050;-54
2023/01/29 19:03:39;;;;;;;;;;;;;;;20.17;28.05;96350.28;10424008;28;2112;-54
2023/01/29 19:08:39;;;;;;;;;;;;;;;20.16;28.38;96348.69;10426467;28;1970;-54
2023/01/29 19:13:41;;;;;;;;;;;;;;;20.16;28.29;96343.41;10441070;28;1900;-52
2023/01/29 19:18:42;;;;;;;;;;;;;;;20.17;28.06;96350.28;10435637;28;1851;-53
2023/01/29 19:23:43;;;;;;;;;;;;;;;20.17;28.00;96345.00;10440491;28;2230;-50
2023/01/29 19:28:43;;;;;;;;;;;;;;;20.17;28.28;96342.38;10436857;28;1906;-51
2023/01/29 19:33:44;;;;;;;;;;;;;;;20.19;28.28;96349.00;10438652;28;2009;-51
2023/01/29 19:38:44;;;;;;;;;;;;;;;20.27;28.39;96351.16;10425093;28;1903;-52
2023/01/29 19:43:45;;;;;;;;;;;;;;;20.29;28.63;96345.63;10432225;28;1848;-52
2023/01/29 19:48:45;;;;;;;;;;;;;;;20.33;28.41;96333.53;10416820;28;1915;-53
2023/01/29 19:53:45;;;;;;;;;;;;;;;20.34;28.23;96329.81;10422190;28;1926;-54
2023/01/29 19:58:46;;;;;;;;;;;;;;;20.37;28.37;96323.25;10427559;28;1876;-53
2023/01/29 20:03:46;;;;;;;;;;;;;;;20.39;28.32;96319.31;10432603;28;1859;-51
2023/01/29 20:08:47;;;;;;;;;;;;;;;20.42;28.24;96321.44;10439822;28;1902;-54
2023/01/29 20:13:48;;;;;;;;;;;;;;;20.45;28.08;96320.13;10431080;28;2205;-52
2023/01/29 20:18:48;;;;;;;;;;;;;;;20.48;28.01;96320.41;10439166;28;1963;-49
2023/01/29 20:23:49;;;;;;;;;;;;;;;20.45;27.40;96310.38;10432975;28;1872;-54
2023/01/29 20:28:49;;;;;;;;;;;;;;;20.50;27.68;96320.94;10429082;28;1906;-54
2023/01/29 20:33:50;;;;;;;;;;;;;;;20.49;26.96;96321.19;10429065;28;1919;-52
2023/01/29 20:38:50;;;;;;;;;;;;;;;20.42;26.30;96318.81;10428320;28;1930;-55
2023/01/29 20:43:50;;;;;;;;;;;;;;;20.38;26.50;96314.31;10430477;28;1862;-54
2023/01/29 20:48:52;;;;;;;;;;;;;;;20.35;26.10;96302.47;10418578;28;1950;-54
2023/01/29 20:53:54;;;;;;;;;;;;;;;20.31;26.04;96298.75;10434512;28;1903;-50
2023/01/29 20:58:54;;;;;;;;;;;;;;;20.27;27.09;96295.06;10422836;28;1966;-54
2023/01/29 21:03:54;;;;;;;;;;;;;;;20.21;27.64;96289.00;10415113;28;1920;-54
2023/01/29 21:08:55;;;;;;;;;;;;;;;20.16;27.91;96290.75;10419764;28;2150;-53
2023/01/29 21:13:56;;;;;;;;;;;;;;;20.14;27.92;96298.13;10422584;28;2158;-54
2023/01/29 21:18:57;;;;;;;;;;;;;;;20.09;28.17;96290.22;10421022;28;2014;-54
2023/01/29 21:23:57;;;;;;;;;;;;;;;20.07;28.32;96290.47;10417057;28;2006;-50
2023/01/29 21:28:57;;;;;;;;;;;;;;;20.06;28.47;96296.00;10414940;28;2029;-49
2023/01/29 21:33:57;;;;;;;;;;;;;;;19.96;28.37;96302.00;10420895;28;2095;-53
2023/01/29 21:38:58;;;;;;;;;;;;;;;19.94;28.54;96303.31;10421284;28;2045;-52
2023/01/29 21:43:58;;;;;;;;;;;;;;;19.95;28.59;96297.78;10415599;28;2029;-53
2023/01/29 21:48:58;;;;;;;;;;;;;;;19.95;28.65;96302.25;10411813;28;2104;-50
2023/01/29 21:53:58;;;;;;;;;;;;;;;19.88;28.70;96293.81;10421067;28;1931;-52
2023/01/29 21:59:01;;;;;;;;;;;;;;;19.86;28.98;96286.19;10416031;28;2039;-52
2023/01/29 22:04:01;;;;;;;;;;;;;;;19.84;28.81;96284.84;10417938;28;1993;-52
2023/01/29 22:09:01;;;;;;;;;;;;;;;19.79;28.65;96282.19;10415374;28;2062;-52
2023/01/29 22:14:01;;;;;;;;;;;;;;;19.74;28.57;96277.66;10416869;28;1902;-53
2023/01/29 22:19:02;;;;;;;;;;;;;;;19.72;28.50;96273.75;10403542;28;1994;-52
2023/01/29 22:24:02;;;;;;;;;;;;;;;19.68;28.55;96272.66;10421403;28;1949;-52
2023/01/29 22:29:02;;;;;;;;;;;;;;;19.63;28.33;96270.00;10423369;28;2009;-50
2023/01/29 22:34:03;;;;;;;;;;;;;;;19.60;28.09;96267.88;10413487;28;1995;-48
2023/01/29 22:39:03;;;;;;;;;;;;;;;19.56;28.05;96258.94;10402958;28;2041;-50
2023/01/29 22:44:04;;;;;;;;;;;;;;;19.50;27.95;96234.41;10428388;28;1978;-50
2023/01/29 22:49:04;;;;;;;;;;;;;;;19.45;27.87;96227.28;10427810;28;2065;-48
2023/01/29 22:54:04;;;;;;;;;;;;;;;19.41;27.85;96220.19;10427252;28;2079;-52
2023/01/29 22:59:04;;;;;;;;;;;;;;;19.37;27.68;96205.97;10428838;28;1942;-51
2023/01/29 23:04:05;;;;;;;;;;;;;;;19.34;27.72;96206.47;10424398;28;1955;-52
2023/01/29 23:09:05;;;;;;;;;;;;;;;19.29;27.61;96199.31;10432280;28;1972;-56
2023/01/29 23:14:06;;;;;;;;;;;;;;;19.23;27.76;96197.69;10426475;28;2002;-52
2023/01/29 23:19:06;;;;;;;;;;;;;;;19.22;27.57;96197.97;10419460;28;2036;-51
2023/01/29 23:24:06;;;;;;;;;;;;;;;19.17;27.60;96182.94;10419511;28;2042;-53
2023/01/29 23:29:07;;;;;;;;;;;;;;;19.14;27.54;96185.28;10420452;28;2109;-53
2023/01/29 23:34:07;;;;;;;;;;;;;;;19.10;27.55;96182.38;10422541;28;1975;-52
2023/01/29 23:39:07;;;;;;;;;;;;;;;19.07;27.37;96176.84;10424128;28;2123;-53
2023/01/29 23:44:07;;;;;;;;;;;;;;;19.03;27.41;96171.31;10425116;28;1973;-53
2023/01/29 23:49:08;;;;;;;;;;;;;;;18.99;27.38;96167.59;10423128;28;2018;-53
2023/01/29 23:54:08;;;;;;;;;;;;;;;18.97;27.45;96166.25;10419755;28;1952;-52
2023/01/29 23:59:09;;;;;;;;;;;;;;;18.93;27.11;96158.09;10421276;28;1923;-52
